Enter the Airport ICAO Code

Search by Airport or City

Current Weather

LEVC | Valencia Airport

Valencia, Valencian Community, Spain

Last Update 19 Minutes Ago

Sky with Few Clouds

Temperature of 22 ºC

Moderate Winds from East

Temperature

22 ºC

Dew Point Temperature

13 ºC

Relative Humidity

56.84 %

Wind Direction

East (070º, Ranging from 050º to 110º)

Wind Velocity

22 km/h (12 kt)

Gusts

None

Visibility

Greater than 10 Kilometers

Sea Level Pressure

1021 hPa (Hectopascals)

Layers of Clouds

5% to 30% of Sky Covered from 1219 mts (4000 ft) Above Ground Level.

METAR LEVC 211330Z 07012KT 050V110 9999 FEW040 22/13 Q1021 NOSIG

Weather Forecast

LEVC | Valencia Airport

Valencia, Valencian Community, Spain

Forecast valid for the next 22 Hours

From now on it is expected:

Partly Cloudy Sky

Moderate Winds from NorthEast

From now on it is expected 10 hours with intermittent periods of:

Rain

In 10 hours it is expected the begining of 11 hours with intermittent periods of:

Thunderstorm with Rain

In 6 to 8 hours it is expected the begining of:

Light to Moderate Winds from North

Maximum Temperature

23 ºC in -2 Hours

Minimum Temperature

16 ºC in 16 Hours

TAF LEVC 211100Z 2112/2212 06010KT 9999 SCT040 TX23/2112Z TN16/2206Z PROB30 TEMPO 2112/2124 4000 SHRA BKN030 SCT040TCU PROB40 TEMPO 2200/2211 4000 TSRA BKN020 FEW030CB BECMG 2120/2122 34007KT